Accueil
METAR-TAF:

METAR-TAF

Aéroports :

Emporia Municipal Airport

Emporia, Kansas, États-Unis

latitude: 38-19-44N, longitude: 096-11-38W, altitude: 367 m

Observation

Le bulletin a été fait il y a 47 minutes, à 21:53 UTC
Vent 13 kt de sud avec des rafales jusqu'à 22 kt
Température 31°C
Humidité 46%
Pression 1012 hPa
Visibilité: 16.1 km
Ciel clair

METAR: KEMP 122153Z AUTO 18013G22KT 10SM CLR 31/18 A2989 RMK AO2 SLP111 T03110178

Heure: 17:40 (22:40 UTC)


TAF: absent

Observations et prévisions météorologiques de plus de 4000 aéroports (messages METAR et TAF).

Les stations disponibles sont représentées par des disques jaunes et rouges sur la carte.

Passer la souris dessus pour voir le nom de la station.

Cliquer dessus pour voir les observations et prévisions météorologiques.

Pour changer de carte: cliquez sur les boutons verts avec une croix noire pour zoomer, sur le bouton vert avec un tiret pour effectuer un zoom arrière, ou sur les flèches vertes pour les cartes adjacentes.


METAR-TAF: